createdAt,value
2023-04-18T00:02:46.026Z,3.88
2023-04-18T00:05:32.315Z,3.70
2023-04-18T00:08:18.360Z,3.75
2023-04-18T00:11:04.371Z,3.60
2023-04-18T00:13:50.291Z,3.78
2023-04-18T00:16:38.094Z,3.95
2023-04-18T00:19:24.355Z,3.53
2023-04-18T00:22:11.106Z,3.92
2023-04-18T00:24:57.332Z,4.18
2023-04-18T00:27:43.565Z,3.92
2023-04-18T00:30:29.498Z,3.95
2023-04-18T00:33:16.224Z,3.80
2023-04-18T00:36:03.426Z,3.95
2023-04-18T00:38:49.582Z,3.72
2023-04-18T00:41:35.709Z,4.03
2023-04-18T00:44:21.721Z,3.95
2023-04-18T00:47:07.951Z,4.18
2023-04-18T00:49:54.873Z,3.78
2023-04-18T00:55:29.517Z,4.10
2023-04-18T00:58:15.935Z,4.20
2023-04-18T01:01:02.079Z,4.28
2023-04-18T01:03:48.540Z,4.15
2023-04-18T01:06:36.278Z,4.25
2023-04-18T01:09:24.687Z,4.32
2023-04-18T01:12:11.351Z,4.47
2023-04-18T01:14:57.337Z,4.40
2023-04-18T01:17:43.530Z,4.43
2023-04-18T01:20:32.339Z,4.43
2023-04-18T01:23:19.301Z,5.05
2023-04-18T01:26:05.777Z,5.40
2023-04-18T01:28:52.035Z,5.30
2023-04-18T01:31:39.330Z,5.03
2023-04-18T01:34:26.666Z,5.25
2023-04-18T01:37:12.836Z,5.55
2023-04-18T01:40:00.002Z,4.85
2023-04-18T01:42:46.315Z,6.00
2023-04-18T01:45:32.301Z,4.78
2023-04-18T01:48:18.189Z,6.45
2023-04-18T01:51:04.463Z,5.78
2023-04-18T01:53:51.021Z,5.75
2023-04-18T01:56:37.545Z,5.90
2023-04-18T01:59:23.464Z,6.68
2023-04-18T02:02:11.254Z,6.45
2023-04-18T02:04:57.182Z,6.35
2023-04-18T02:07:43.799Z,6.20
2023-04-18T02:10:29.795Z,6.90
2023-04-18T02:13:15.719Z,5.97
2023-04-18T02:16:01.682Z,7.22
2023-04-18T02:18:49.815Z,6.78
2023-04-18T02:21:35.950Z,6.57
2023-04-18T02:24:21.954Z,6.90
2023-04-18T02:27:07.995Z,6.70
2023-04-18T02:29:54.181Z,6.47
2023-04-18T02:32:40.404Z,6.60
2023-04-18T02:35:27.335Z,7.45
2023-04-18T02:38:13.819Z,7.40
2023-04-18T02:41:00.198Z,6.78
2023-04-18T02:43:46.206Z,6.55
2023-04-18T02:46:34.929Z,7.30
2023-04-18T02:49:23.501Z,6.85
2023-04-18T02:52:09.866Z,7.28
2023-04-18T02:54:56.229Z,7.35
2023-04-18T02:57:45.856Z,7.78
2023-04-18T03:00:54.341Z,7.40
2023-04-18T03:03:59.304Z,7.88
2023-04-18T03:07:05.729Z,7.53
2023-04-18T03:09:55.359Z,7.60
2023-04-18T03:12:47.702Z,6.93
2023-04-18T03:15:35.969Z,8.07
2023-04-18T03:18:22.596Z,6.97
2023-04-18T03:21:09.611Z,8.00
2023-04-18T03:23:56.185Z,7.90
2023-04-18T03:26:42.421Z,7.60
2023-04-18T03:29:29.403Z,7.60
2023-04-18T03:32:17.277Z,7.93
2023-04-18T03:35:03.544Z,7.43
2023-04-18T03:37:50.017Z,7.82
2023-04-18T03:40:44.489Z,7.60
2023-04-18T03:43:37.917Z,8.05
2023-04-18T03:46:24.629Z,8.95
2023-04-18T03:49:13.254Z,8.23
2023-04-18T03:51:59.370Z,7.75
2023-04-18T03:54:45.371Z,8.43
2023-04-18T03:57:32.329Z,8.10
2023-04-18T04:00:19.764Z,8.38
2023-04-18T04:03:19.653Z,7.97
2023-04-18T04:06:06.859Z,8.23
2023-04-18T04:08:52.989Z,7.70
2023-04-18T04:11:43.404Z,8.57
2023-04-18T04:14:32.672Z,8.70
2023-04-18T04:20:06.556Z,7.68
2023-04-18T04:22:53.989Z,8.05
2023-04-18T04:25:41.457Z,7.35
2023-04-18T04:28:38.927Z,7.85
2023-04-18T04:31:26.433Z,7.90
2023-04-18T04:34:13.181Z,8.02
2023-04-18T04:39:48.249Z,7.88
2023-04-18T04:42:54.503Z,8.65
2023-04-18T04:45:52.535Z,7.88
2023-04-18T04:48:43.213Z,7.47
2023-04-18T04:51:29.255Z,8.32
2023-04-18T04:57:03.250Z,7.47
2023-04-18T04:59:49.825Z,7.18
2023-04-18T05:02:36.295Z,8.43
2023-04-18T05:05:22.751Z,8.02
2023-04-18T05:08:09.375Z,7.85
2023-04-18T05:10:55.957Z,8.60
2023-04-18T05:13:42.019Z,8.43
2023-04-18T05:16:28.100Z,8.80
2023-04-18T05:19:14.023Z,8.38
2023-04-18T05:22:00.080Z,7.43
2023-04-18T05:24:46.917Z,9.75
2023-04-18T05:27:32.826Z,7.88
2023-04-18T05:30:18.873Z,7.93
2023-04-18T05:33:04.960Z,7.50
2023-04-18T05:35:50.935Z,8.02
2023-04-18T05:38:36.950Z,8.13
2023-04-18T05:41:23.063Z,8.65
2023-04-18T05:44:09.304Z,10.73
2023-04-18T05:46:55.523Z,8.02
2023-04-18T05:49:41.373Z,8.52
2023-04-18T05:52:27.269Z,8.15
2023-04-18T05:55:13.194Z,8.38
2023-04-18T05:57:59.226Z,8.13
2023-04-18T06:00:45.118Z,8.30
2023-04-18T06:03:31.628Z,7.70
2023-04-18T06:06:18.651Z,8.00
2023-04-18T06:09:05.050Z,8.20
2023-04-18T06:11:51.280Z,8.00
2023-04-18T06:14:37.196Z,8.45
2023-04-18T06:17:23.301Z,8.55
2023-04-18T06:20:10.190Z,8.07
2023-04-18T06:22:56.438Z,8.93
2023-04-18T06:25:43.016Z,8.13
2023-04-18T06:28:29.091Z,8.65
2023-04-18T06:31:15.279Z,7.85
2023-04-18T06:34:01.304Z,8.68
2023-04-18T06:36:47.404Z,8.77
2023-04-18T06:39:33.635Z,8.20
2023-04-18T06:42:22.027Z,8.63
2023-04-18T06:45:10.716Z,8.52
2023-04-18T06:47:59.619Z,7.75
2023-04-18T06:50:46.242Z,8.73
2023-04-18T06:53:32.338Z,7.70
2023-04-18T06:56:20.447Z,9.10
2023-04-18T06:59:06.727Z,7.68
2023-04-18T07:01:52.756Z,7.20
2023-04-18T07:04:39.222Z,7.22
2023-04-18T07:07:26.445Z,7.05
2023-04-18T07:10:12.702Z,7.30
2023-04-18T07:12:58.820Z,7.20
2023-04-18T07:15:44.939Z,6.82
2023-04-18T07:18:37.933Z,7.07
2023-04-18T07:21:24.431Z,6.80
2023-04-18T07:24:11.669Z,7.32
2023-04-18T07:26:58.062Z,7.80
2023-04-18T07:29:44.275Z,6.55
2023-04-18T07:32:30.289Z,7.45
2023-04-18T07:35:16.824Z,6.93
2023-04-18T07:38:02.812Z,6.75
2023-04-18T07:40:59.665Z,7.18
2023-04-18T07:43:45.912Z,7.25
2023-04-18T07:46:32.533Z,6.53
2023-04-18T07:49:19.195Z,7.00
2023-04-18T07:52:05.448Z,6.63
2023-04-18T07:54:51.456Z,6.97
2023-04-18T07:57:37.267Z,6.75
2023-04-18T08:00:23.294Z,6.85
2023-04-18T08:03:13.424Z,7.05
2023-04-18T08:05:59.996Z,6.65
2023-04-18T08:08:46.447Z,6.47
2023-04-18T08:14:20.070Z,6.60
2023-04-18T08:17:06.169Z,6.88
2023-04-18T08:19:52.205Z,7.47
2023-04-18T08:22:49.988Z,7.68
2023-04-18T08:25:44.189Z,7.75
2023-04-18T08:28:30.470Z,7.45
2023-04-18T08:31:17.142Z,7.25
2023-04-18T08:34:05.061Z,7.13
2023-04-18T08:36:51.657Z,6.65
2023-04-18T08:39:37.733Z,7.28
2023-04-18T08:42:24.256Z,7.90
2023-04-18T08:45:12.403Z,7.10
2023-04-18T08:48:01.413Z,6.78
2023-04-18T08:50:47.947Z,7.07
2023-04-18T08:53:34.296Z,6.75
2023-04-18T08:56:25.980Z,7.20
2023-04-18T08:59:12.877Z,6.93
2023-04-18T09:02:01.439Z,6.50
2023-04-18T09:04:53.791Z,5.90
2023-04-18T09:07:41.059Z,7.32
2023-04-18T09:10:31.041Z,7.13
2023-04-18T09:13:39.976Z,6.10
2023-04-18T09:16:27.838Z,5.85
2023-04-18T09:19:18.465Z,5.97
2023-04-18T09:22:04.955Z,6.35
2023-04-18T09:24:58.075Z,6.18
2023-04-18T09:27:44.271Z,6.15
2023-04-18T09:30:32.872Z,6.50
2023-04-18T09:33:34.299Z,6.13
2023-04-18T09:36:22.939Z,5.90
2023-04-18T09:39:09.392Z,6.35
2023-04-18T09:41:59.606Z,6.32
2023-04-18T09:45:05.306Z,6.55
2023-04-18T09:47:53.596Z,6.20
2023-04-18T09:50:41.661Z,5.60
2023-04-18T09:53:28.339Z,6.07
2023-04-18T09:56:43.795Z,6.25
2023-04-18T09:59:38.066Z,6.40
2023-04-18T10:02:28.361Z,6.00
2023-04-18T10:05:18.258Z,6.45
2023-04-18T10:08:07.947Z,6.03
2023-04-18T10:10:55.931Z,6.18
2023-04-18T10:13:44.419Z,5.97
2023-04-18T10:16:34.097Z,5.75
2023-04-18T10:19:26.149Z,5.45
2023-04-18T10:22:13.340Z,6.32
2023-04-18T10:24:59.318Z,6.03
2023-04-18T10:27:48.341Z,5.75
2023-04-18T10:30:40.497Z,5.85
2023-04-18T10:33:41.055Z,5.88
2023-04-18T10:36:28.900Z,5.60
2023-04-18T10:39:22.845Z,5.50
2023-04-18T10:42:09.075Z,5.88
2023-04-18T10:45:21.218Z,5.60
2023-04-18T10:48:29.540Z,5.65
2023-04-18T10:51:21.036Z,5.05
2023-04-18T10:54:13.114Z,4.80
2023-04-18T10:57:01.867Z,5.60
2023-04-18T10:59:52.515Z,5.72
2023-04-18T11:02:40.048Z,5.38
2023-04-18T11:05:28.709Z,4.63
2023-04-18T11:08:24.633Z,5.95
2023-04-18T11:11:11.479Z,5.28
2023-04-18T11:13:59.393Z,5.13
2023-04-18T11:16:45.822Z,5.40
2023-04-18T11:19:32.308Z,5.53
2023-04-18T11:22:19.263Z,5.47
2023-04-18T11:25:08.900Z,5.45
2023-04-18T11:27:55.802Z,5.43
2023-04-18T11:30:42.339Z,5.45
2023-04-18T11:33:29.428Z,5.63
2023-04-18T11:36:16.474Z,4.93
2023-04-18T11:39:02.936Z,5.03
2023-04-18T11:41:51.975Z,5.15
2023-04-18T11:44:39.965Z,5.35
2023-04-18T11:47:28.795Z,5.80
2023-04-18T11:50:15.015Z,5.50
2023-04-18T11:53:00.775Z,4.90
2023-04-18T11:55:56.447Z,5.13
2023-04-18T11:58:42.969Z,4.82
2023-04-18T12:01:28.822Z,5.53
2023-04-18T12:04:16.650Z,4.85
2023-04-18T12:07:03.649Z,5.50
2023-04-18T12:09:52.571Z,5.00
2023-04-18T12:12:51.954Z,5.35
2023-04-18T12:15:43.897Z,5.00
2023-04-18T12:18:29.907Z,5.13
2023-04-18T12:21:17.099Z,4.93
2023-04-18T12:24:15.622Z,4.75
2023-04-18T12:27:02.214Z,5.38
2023-04-18T12:29:48.519Z,4.57
2023-04-18T12:32:34.626Z,5.43
2023-04-18T12:35:21.977Z,4.32
2023-04-18T12:38:08.492Z,4.68
2023-04-18T12:40:54.836Z,4.65
2023-04-18T12:43:41.105Z,4.43
2023-04-18T12:49:13.606Z,4.20
2023-04-18T12:51:59.565Z,3.95
2023-04-18T12:54:45.996Z,4.05
2023-04-18T12:57:32.193Z,3.95
2023-04-18T13:00:18.437Z,4.10
2023-04-18T13:03:06.209Z,3.90
2023-04-18T13:05:55.606Z,4.18
2023-04-18T13:08:42.683Z,3.97
2023-04-18T13:11:29.923Z,4.65
2023-04-18T13:14:16.238Z,4.30
2023-04-18T13:17:02.517Z,4.85
2023-04-18T13:19:49.017Z,5.13
2023-04-18T13:22:34.936Z,4.70
2023-04-18T13:25:21.692Z,4.15
2023-04-18T13:28:07.517Z,4.30
2023-04-18T13:30:53.382Z,4.35
2023-04-18T13:33:40.022Z,4.38
2023-04-18T13:36:27.955Z,4.32
2023-04-18T13:39:15.218Z,4.53
2023-04-18T13:44:50.825Z,4.32
2023-04-18T13:47:37.399Z,4.63
2023-04-18T13:50:24.440Z,4.43
2023-04-18T13:55:56.958Z,4.47
2023-04-18T13:58:43.161Z,5.13
2023-04-18T14:01:29.235Z,5.53
2023-04-18T14:04:16.138Z,4.85
2023-04-18T14:07:03.936Z,4.53
2023-04-18T14:09:51.225Z,4.03
2023-04-18T14:12:39.882Z,3.95
2023-04-18T14:15:26.132Z,3.65
2023-04-18T14:18:12.371Z,3.65
2023-04-18T14:20:59.293Z,4.25
2023-04-18T14:23:45.262Z,3.95
2023-04-18T14:26:31.303Z,3.97
2023-04-18T14:29:17.356Z,3.72
2023-04-18T14:32:03.847Z,3.67
2023-04-18T14:34:50.350Z,4.30
2023-04-18T14:40:23.307Z,3.50
2023-04-18T14:43:09.229Z,4.00
2023-04-18T14:45:55.213Z,4.07
2023-04-18T14:48:41.579Z,4.43
2023-04-18T14:51:28.149Z,4.32
2023-04-18T14:54:14.340Z,4.65
2023-04-18T14:57:01.144Z,4.65
2023-04-18T14:59:47.579Z,4.47
2023-04-18T15:02:33.813Z,4.80
2023-04-18T15:05:23.643Z,4.85
2023-04-18T15:08:11.451Z,4.45
2023-04-18T15:10:57.422Z,4.57
2023-04-18T15:13:44.618Z,4.45
2023-04-18T15:16:32.085Z,4.60
2023-04-18T15:19:18.232Z,4.88
2023-04-18T15:22:04.247Z,5.35
2023-04-18T15:24:50.646Z,4.93
2023-04-18T15:27:36.870Z,5.25
2023-04-18T15:30:22.823Z,4.85
2023-04-18T15:33:08.848Z,4.65
2023-04-18T15:35:55.731Z,4.47
2023-04-18T15:38:42.892Z,5.55
2023-04-18T15:41:29.134Z,5.10
2023-04-18T15:44:15.261Z,4.30
2023-04-18T15:47:01.860Z,4.93
2023-04-18T15:49:47.898Z,4.38
2023-04-18T15:52:34.048Z,4.40
2023-04-18T15:55:20.250Z,4.50
2023-04-18T15:58:06.604Z,4.32
2023-04-18T16:00:52.779Z,4.30
2023-04-18T16:03:39.010Z,7.55
2023-04-18T16:06:26.531Z,6.22
2023-04-18T16:09:12.616Z,4.20
2023-04-18T16:11:59.162Z,4.55
2023-04-18T16:14:45.563Z,3.80
2023-04-18T16:17:31.448Z,4.60
2023-04-18T16:20:17.886Z,4.20
2023-04-18T16:23:03.919Z,4.43
2023-04-18T16:25:49.827Z,4.40
2023-04-18T16:28:38.595Z,3.90
2023-04-18T16:31:24.605Z,3.85
2023-04-18T16:34:10.461Z,4.88
2023-04-18T16:36:56.447Z,4.57
2023-04-18T16:39:42.257Z,4.95
2023-04-18T16:42:28.096Z,4.10
2023-04-18T16:45:14.174Z,4.97
2023-04-18T16:47:59.947Z,4.88
2023-04-18T16:50:45.985Z,4.32
2023-04-18T16:53:32.338Z,5.00
2023-04-18T16:56:18.556Z,4.70
2023-04-18T16:59:04.600Z,5.35
2023-04-18T17:01:50.996Z,4.68
2023-04-18T17:04:37.259Z,4.82
2023-04-18T17:07:23.142Z,4.88
2023-04-18T17:10:10.146Z,5.03
2023-04-18T17:12:56.645Z,4.38
2023-04-18T17:18:29.489Z,4.75
2023-04-18T17:21:15.707Z,4.40
2023-04-18T17:24:03.878Z,4.50
2023-04-18T17:26:49.987Z,4.50
2023-04-18T17:29:36.628Z,4.35
2023-04-18T17:32:23.577Z,4.10
2023-04-18T17:35:09.988Z,4.30
2023-04-18T17:37:56.162Z,4.10
2023-04-18T17:40:42.561Z,4.32
2023-04-18T17:43:28.630Z,4.35
2023-04-18T17:46:14.967Z,3.80
2023-04-18T17:49:01.307Z,4.22
2023-04-18T17:51:47.242Z,3.90
2023-04-18T17:54:33.225Z,4.15
2023-04-18T17:57:19.196Z,4.65
2023-04-18T18:00:11.216Z,4.20
2023-04-18T18:03:01.803Z,4.63
2023-04-18T18:05:49.444Z,4.65
2023-04-18T18:08:35.675Z,3.97
2023-04-18T18:11:23.154Z,4.53
2023-04-18T18:14:09.424Z,4.30
2023-04-18T18:16:56.226Z,4.38
2023-04-18T18:19:42.419Z,4.72
2023-04-18T18:22:28.723Z,5.20
2023-04-18T18:25:15.068Z,5.03
2023-04-18T18:28:03.311Z,5.18
2023-04-18T18:30:49.533Z,4.43
2023-04-18T18:33:36.111Z,4.05
2023-04-18T18:36:21.874Z,4.35
2023-04-18T18:39:07.948Z,4.50
2023-04-18T18:41:54.024Z,4.55
2023-04-18T18:44:39.923Z,4.05
2023-04-18T18:47:26.163Z,4.40
2023-04-18T18:50:12.460Z,4.97
2023-04-18T18:52:58.567Z,5.10
2023-04-18T18:55:44.833Z,4.70
2023-04-18T18:58:30.833Z,5.15
2023-04-18T19:01:17.178Z,4.63
2023-04-18T19:04:03.967Z,5.25
2023-04-18T19:06:50.204Z,5.40
2023-04-18T19:09:37.046Z,5.40
2023-04-18T19:15:09.591Z,5.50
2023-04-18T19:17:56.524Z,4.88
2023-04-18T19:20:43.017Z,5.72
2023-04-18T19:23:30.931Z,5.40
2023-04-18T19:26:17.013Z,4.85
2023-04-18T19:29:03.310Z,5.30
2023-04-18T19:31:49.584Z,5.43
2023-04-18T19:34:36.394Z,5.13
2023-04-18T19:37:22.447Z,4.88
2023-04-18T19:40:09.101Z,5.18
2023-04-18T19:42:55.120Z,4.90
2023-04-18T19:45:41.229Z,4.55
2023-04-18T19:48:27.005Z,4.60
2023-04-18T19:51:13.080Z,4.65
2023-04-18T19:54:10.157Z,4.90
2023-04-18T19:56:58.695Z,4.82
2023-04-18T20:02:31.438Z,4.93
2023-04-18T20:05:19.077Z,5.07
2023-04-18T20:08:05.695Z,5.07
2023-04-18T20:10:51.758Z,5.28
2023-04-18T20:13:38.143Z,5.00
2023-04-18T20:16:24.648Z,4.95
2023-04-18T20:19:12.620Z,4.85
2023-04-18T20:21:59.044Z,5.28
2023-04-18T20:24:46.182Z,5.50
2023-04-18T20:27:32.063Z,5.30
2023-04-18T20:30:18.003Z,4.97
2023-04-18T20:33:04.122Z,4.78
2023-04-18T20:35:50.467Z,5.05
2023-04-18T20:38:36.876Z,5.18
2023-04-18T20:41:24.200Z,5.38
2023-04-18T20:44:10.694Z,4.50
2023-04-18T20:46:56.705Z,4.70
2023-04-18T20:49:43.018Z,4.75
2023-04-18T20:52:30.199Z,5.18
2023-04-18T20:55:16.803Z,4.88
2023-04-18T20:58:03.094Z,5.18
2023-04-18T21:00:48.981Z,4.97
2023-04-18T21:03:35.260Z,4.85
2023-04-18T21:06:22.120Z,5.47
2023-04-18T21:09:08.701Z,4.82
2023-04-18T21:11:55.124Z,5.45
2023-04-18T21:14:41.125Z,5.30
2023-04-18T21:17:27.151Z,5.30
2023-04-18T21:20:13.773Z,4.82
2023-04-18T21:22:59.678Z,5.60
2023-04-18T21:25:46.238Z,5.35
2023-04-18T21:28:32.396Z,4.80
2023-04-18T21:31:18.537Z,5.47
2023-04-18T21:34:05.855Z,4.93
2023-04-18T21:36:52.026Z,5.40
2023-04-18T21:39:38.305Z,4.90
2023-04-18T21:42:24.730Z,4.78
2023-04-18T21:45:11.649Z,4.72
2023-04-18T21:50:43.852Z,5.30
2023-04-18T21:53:29.623Z,5.20
2023-04-18T21:56:17.009Z,4.88
2023-04-18T21:59:03.141Z,4.38
2023-04-18T22:01:49.384Z,4.90
2023-04-18T22:04:37.946Z,4.30
2023-04-18T22:07:24.607Z,4.55
2023-04-18T22:10:11.006Z,5.15
2023-04-18T22:12:58.542Z,4.25
2023-04-18T22:15:45.141Z,4.35
2023-04-18T22:18:33.984Z,4.15
2023-04-18T22:21:20.464Z,4.38
2023-04-18T22:24:07.480Z,4.20
2023-04-18T22:26:53.790Z,4.32
2023-04-18T22:29:39.702Z,4.40
2023-04-18T22:32:25.604Z,4.20
2023-04-18T22:35:11.884Z,4.80
2023-04-18T22:37:57.974Z,4.63
2023-04-18T22:40:44.310Z,4.30
2023-04-18T22:43:30.657Z,4.70
2023-04-18T22:46:16.551Z,5.05
2023-04-18T22:49:02.684Z,4.57
2023-04-18T22:51:48.623Z,4.43
2023-04-18T22:54:39.475Z,4.90
2023-04-18T22:57:25.872Z,4.20
2023-04-18T23:00:13.567Z,4.00
2023-04-18T23:02:59.810Z,4.22
2023-04-18T23:05:45.940Z,4.43
2023-04-18T23:08:32.629Z,4.18
2023-04-18T23:11:18.726Z,4.60
2023-04-18T23:14:04.731Z,4.15
2023-04-18T23:16:50.753Z,4.38
2023-04-18T23:19:36.755Z,4.60
2023-04-18T23:22:24.153Z,4.50
2023-04-18T23:25:10.328Z,4.50
2023-04-18T23:27:56.259Z,4.13
2023-04-18T23:30:42.242Z,4.47
2023-04-18T23:33:28.144Z,4.30
2023-04-18T23:36:14.247Z,3.85
2023-04-18T23:39:00.376Z,4.28
2023-04-18T23:41:46.412Z,4.30
2023-04-18T23:44:32.794Z,4.18
2023-04-18T23:47:19.094Z,4.40
2023-04-18T23:50:05.881Z,4.20
2023-04-18T23:52:51.953Z,4.05
2023-04-18T23:55:37.966Z,5.05
2023-04-18T23:58:23.831Z,4.13
